Página principal
METAR-TAF:

METAR-TAF

Aeroportos :

Aeroporto Internacional Príncipe Said Ibrahim

Moroni, Comores

latitude: 11-32S, longitude: 043-16E, altura: 29 m

Observação actual do tempo

O boletim foi feito há 34 minutos, às 15:00 UTC
Vento 9 kt de es-sudeste
Temperatura 27°C
Humidade 66%
Pressão 1019 hPa
Visibilidade 10 km ou mais
Poucas nuvensa uma altura de 2000 ft, Cumulonimbus.
Nuvens dispersasa uma altura de 2700 ft

METAR: FMCH 161500Z 12009KT 9999 FEW020CB SCT027 27/20 Q1019 NOSIG

Hora: 18:34 (15:34 UTC)

Previsão

O boletim foi feito há 4 horas e 34 minutos, às 11:00 UTC
Previsão válida de 16 às 12 UTC a 17 às 18 UTC
Vento 10 kt de sul
Visibilidade 10 km ou mais
Poucas nuvensa uma altura de 1800 ft
Nuvens dispersasa uma altura de 3000 ft
Tornando-se
de 16 às 16 UTC a 16 às 18 UTC
Vento 2 kt de este
Tornando-se
de 17 às 05 UTC a 17 às 07 UTC
Vento 10 kt de sul

TAF: FMCH 161100Z 1612/1718 19010KT 9999 FEW018 SCT030 BECMG 1616/1618 10002KT BECMG 1705/1707 17010KT

Observações e previsões do tempo de mais de 4000 aeroportos (mensagens METAR e TAF).

As estações disponíveis são os pontos amarelos e vermelhos sobre o mapa.

Mova o rato sobre o mapa para ver o nome da estação.

Depois clique no ponto para visualizar as observações e previsões meteorológicas.

Para alterar o mapa : clique nos botões verdes com uma cruz preta para aumentar o zoom; no botão verde com uma pitada de zoom; ou nas setas verdes para mapas adjacentes.


METAR-TAF: